KMKO

Details ICAO KMKO (MKO)
Name DAVIS FLD
Region United States
Timezone America/Chicago (UTC-5.0)
Plans Departing 3
Arriving 3
Stats Elevation 612 ft / 187 m (AMSL)
Location 35.659382° -95.362130°
Runways 3
Magnetic Variation 2.275° E
Sunrise 2018-06-19 11:06:56 UTC / 2018-06-19 06:06:56 Local
Sunset 2018-06-20 01:41:16 UTC / 2018-06-19 20:41:16 Local
Advertisement - Login to hide

Runways

ID Width Length Bearing (true) Bearing (mag) Surface Threshold Offset Overrun Length
04 75 ft / 23 m 4,501 ft / 1,372 m 46.43° 44.15° Asphalt 0 ft / 0 m 0 ft / 0 m
13 150 ft / 46 m 7,203 ft / 2,196 m 136.69° 134.41° Concrete 0 ft / 0 m 1,000 ft / 305 m
18 60 ft / 18 m 1,906 ft / 581 m 180.00° 177.72° Asphalt 0 ft / 0 m 0 ft / 0 m
22 75 ft / 23 m 4,501 ft / 1,372 m 226.44° 224.16° Asphalt 0 ft / 0 m 0 ft / 0 m
31 150 ft / 46 m 7,203 ft / 2,196 m 316.70° 314.42° Concrete 0 ft / 0 m 1,000 ft / 305 m
36 60 ft / 18 m 1,906 ft / 581 m 0.00° 357.72° Asphalt 0 ft / 0 m 0 ft / 0 m

Map

Weather


0- 5 10 15 20 25 30 35+ Temperature / ° C

Clouds and Precipitation
Forecast for 2018-06-20 00:00 UTC. Updated 34 minutes ago

Ground ~20,000 ft ~40,000 ft Winds

METAR

KMKO 192153Z AUTO 14008KT 10SM FEW035 BKN045 BKN055 29/23 A2996 RMK AO2 SLP136 T02940228

TAF

Not found

Frequencies

Recorded 135.02 MHz ASOS
Unicom 122.80 MHz CTAF/UNICOM
Warning: Do not use this data for real-world aviation or navigation. No guarantee of current accuracy is given.